Time;durP1;ratioP1;P1;durP2;ratioP2;P2;SDS_P1;SDS_P2;PMS_P1;PMS_P2;Temp;Humidity;BMP_temperature;BMP_pressure;BME280_temperature;BME280_humidity;BME280_pressure;Samples;Min_cycle;Max_cycle;Signal;HPM_P1;HPM_P2
2021/06/21 13:54:24;;;;;;;10.65;3.70;;;;;;;;;;5125113;27;20379;-62
2021/06/21 13:56:50;;;;;;;9.55;3.42;;;;;;;;;;5109392;28;20597;-61
2021/06/21 13:59:17;;;;;;;7.10;3.38;;;;;;;;;;5109529;28;20031;-61
2021/06/21 14:01:54;;;;;;;11.43;3.70;;;;;;;;;;5109148;28;20459;-61
2021/06/21 14:04:21;;;;;;;15.02;4.50;;;;;;;;;;5109247;28;20020;-60
2021/06/21 14:06:48;;;;;;;10.93;4.03;;;;;;;;;;5108150;28;20046;-60
2021/06/21 14:09:17;;;;;;;11.98;3.78;;;;;;;;;;5097941;28;20024;-58
2021/06/21 14:11:43;;;;;;;14.00;4.00;;;;;;;;;;5093589;28;20578;-60
2021/06/21 14:14:09;;;;;;;16.08;3.92;;;;;;;;;;5095344;28;20028;-63
2021/06/21 14:16:35;;;;;;;11.32;4.03;;;;;;;;;;5096238;28;20025;-58
2021/06/21 14:19:03;;;;;;;9.75;3.80;;;;;;;;;;5090577;28;20071;-58
2021/06/21 14:21:29;;;;;;;9.55;3.63;;;;;;;;;;5093467;28;20457;-58
2021/06/21 14:23:58;;;;;;;10.15;3.55;;;;;;;;;;5094627;28;20024;-60
2021/06/21 14:26:24;;;;;;;7.85;3.45;;;;;;;;;;5093230;28;20071;-58
2021/06/21 14:28:50;;;;;;;7.38;3.00;;;;;;;;;;5096335;28;20453;-58
2021/06/21 14:31:17;;;;;;;7.20;3.08;;;;;;;;;;5095784;28;20016;-58
2021/06/21 14:33:43;;;;;;;12.10;3.40;;;;;;;;;;5094532;28;20479;-58
2021/06/21 14:36:09;;;;;;;8.25;3.20;;;;;;;;;;5097597;28;20107;-58
2021/06/21 14:38:36;;;;;;;9.48;3.60;;;;;;;;;;5093835;28;20475;-58
2021/06/21 14:41:02;;;;;;;13.57;3.50;;;;;;;;;;5096661;28;20040;-58
2021/06/21 14:43:29;;;;;;;13.13;3.90;;;;;;;;;;5092421;28;20034;-58
2021/06/21 14:45:55;;;;;;;10.73;3.55;;;;;;;;;;5094493;28;20466;-58
2021/06/21 14:48:21;;;;;;;12.70;3.30;;;;;;;;;;5097302;28;20133;-58
2021/06/21 14:50:47;;;;;;;9.05;3.35;;;;;;;;;;5090145;28;20020;-59
2021/06/21 14:53:13;;;;;;;7.18;3.17;;;;;;;;;;5098859;28;20039;-58
2021/06/21 14:55:41;;;;;;;9.25;3.60;;;;;;;;;;5095488;28;20036;-58
2021/06/21 14:58:08;;;;;;;6.15;3.22;;;;;;;;;;5094666;28;20020;-59
2021/06/21 15:00:36;;;;;;;8.55;3.72;;;;;;;;;;5097223;28;20028;-58
2021/06/21 15:03:02;;;;;;;12.05;3.78;;;;;;;;;;5093205;28;20104;-58
2021/06/21 15:05:28;;;;;;;6.57;3.33;;;;;;;;;;5087253;28;20016;-58
2021/06/21 15:07:55;;;;;;;6.35;3.38;;;;;;;;;;5081001;28;20145;-59
2021/06/21 15:10:22;;;;;;;8.95;3.70;;;;;;;;;;5080563;28;20044;-58
2021/06/21 15:12:49;;;;;;;7.85;4.05;;;;;;;;;;5080321;28;20029;-59
2021/06/21 15:15:16;;;;;;;6.28;3.42;;;;;;;;;;5085533;28;20379;-60
2021/06/21 15:17:46;;;;;;;6.88;3.88;;;;;;;;;;5082777;28;20047;-59
2021/06/21 15:20:12;;;;;;;7.75;3.60;;;;;;;;;;5078815;28;20012;-58
2021/06/21 15:22:38;;;;;;;8.55;4.03;;;;;;;;;;5081683;28;20121;-58
2021/06/21 15:25:05;;;;;;;8.98;3.55;;;;;;;;;;5082712;28;20012;-58
2021/06/21 15:27:31;;;;;;;6.90;3.50;;;;;;;;;;5079951;28;20056;-58
2021/06/21 15:29:57;;;;;;;6.70;3.60;;;;;;;;;;5079540;28;20511;-59
2021/06/21 15:32:23;;;;;;;7.22;3.58;;;;;;;;;;5079735;28;20536;-58
2021/06/21 15:34:49;;;;;;;9.15;4.20;;;;;;;;;;5080296;28;20034;-61
2021/06/21 15:37:16;;;;;;;7.95;3.53;;;;;;;;;;5080586;28;20073;-59
2021/06/21 15:39:43;;;;;;;8.05;3.75;;;;;;;;;;5084376;28;20032;-58
2021/06/21 15:42:12;;;;;;;6.25;3.35;;;;;;;;;;5085219;28;20026;-60
2021/06/21 15:44:38;;;;;;;6.65;3.45;;;;;;;;;;5084219;28;20028;-58
2021/06/21 15:47:05;;;;;;;6.97;3.58;;;;;;;;;;5081736;28;20027;-57
2021/06/21 15:49:31;;;;;;;6.53;3.40;;;;;;;;;;5079466;28;20025;-59
2021/06/21 15:51:58;;;;;;;6.85;3.60;;;;;;;;;;5085282;28;20031;-58
2021/06/21 15:54:24;;;;;;;5.45;3.53;;;;;;;;;;5081530;28;20095;-58
2021/06/21 15:56:50;;;;;;;6.70;3.25;;;;;;;;;;5085842;28;20020;-59
2021/06/21 15:59:16;;;;;;;6.88;3.53;;;;;;;;;;5082626;28;20114;-58
2021/06/21 16:01:42;;;;;;;6.97;3.65;;;;;;;;;;5084968;28;20021;-60
2021/06/21 16:04:09;;;;;;;7.72;3.53;;;;;;;;;;5082876;28;20087;-58
2021/06/21 16:06:38;;;;;;;9.98;3.50;;;;;;;;;;5079830;28;20096;-59
2021/06/21 16:09:04;;;;;;;7.20;3.15;;;;;;;;;;5082538;28;20024;-58
2021/06/21 16:11:31;;;;;;;9.07;3.38;;;;;;;;;;5085111;28;20031;-59
2021/06/21 16:13:57;;;;;;;6.82;3.13;;;;;;;;;;5081896;28;20479;-59
2021/06/21 16:16:23;;;;;;;6.30;3.33;;;;;;;;;;5079704;28;20502;-58
2021/06/21 16:18:49;;;;;;;6.05;3.30;;;;;;;;;;5083536;28;20399;-58
2021/06/21 16:21:18;;;;;;;7.93;3.65;;;;;;;;;;5078777;28;20069;-60
2021/06/21 16:23:44;;;;;;;7.63;2.85;;;;;;;;;;5081991;28;20012;-58
2021/06/21 16:26:10;;;;;;;7.90;2.78;;;;;;;;;;5084685;28;20483;-59
2021/06/21 16:28:36;;;;;;;9.45;3.30;;;;;;;;;;5081786;28;20433;-58
2021/06/21 16:31:02;;;;;;;4.88;2.97;;;;;;;;;;5081721;28;20621;-58
2021/06/21 16:33:28;;;;;;;6.78;2.88;;;;;;;;;;5083830;28;20171;-58
2021/06/21 16:35:54;;;;;;;8.50;3.25;;;;;;;;;;5081774;28;20389;-59
2021/06/21 16:38:21;;;;;;;6.57;3.03;;;;;;;;;;5081234;28;20392;-59
2021/06/21 16:40:47;;;;;;;7.32;3.58;;;;;;;;;;5081275;28;20552;-58
2021/06/21 16:43:13;;;;;;;11.10;3.70;;;;;;;;;;5078811;28;20054;-58
2021/06/21 16:45:40;;;;;;;6.95;3.15;;;;;;;;;;5078892;28;20020;-58
2021/06/21 16:48:06;;;;;;;8.15;3.33;;;;;;;;;;5081678;28;20020;-58
2021/06/21 16:50:32;;;;;;;6.65;3.30;;;;;;;;;;5083837;28;20020;-58
2021/06/21 16:52:58;;;;;;;6.65;3.50;;;;;;;;;;5083698;28;20101;-60
2021/06/21 16:55:26;;;;;;;10.20;3.17;;;;;;;;;;5082901;28;20072;-58
2021/06/21 16:57:53;;;;;;;6.25;3.42;;;;;;;;;;5083456;28;20372;-60
2021/06/21 17:00:25;;;;;;;7.32;3.30;;;;;;;;;;5081754;28;20047;-58
2021/06/21 17:02:55;;;;;;;8.82;3.28;;;;;;;;;;5081948;28;20464;-58
2021/06/21 17:05:21;;;;;;;7.82;3.65;;;;;;;;;;5084180;28;20028;-58
2021/06/21 17:07:48;;;;;;;8.30;3.08;;;;;;;;;;5080109;28;20476;-58
2021/06/21 17:10:15;;;;;;;6.88;3.47;;;;;;;;;;5083151;28;20043;-58
2021/06/21 17:12:42;;;;;;;6.53;2.85;;;;;;;;;;5083596;28;20033;-58
2021/06/21 17:15:09;;;;;;;7.95;3.83;;;;;;;;;;5078247;28;20089;-58
2021/06/21 17:17:35;;;;;;;8.40;3.70;;;;;;;;;;5077095;28;20027;-58
2021/06/21 17:20:01;;;;;;;8.80;3.53;;;;;;;;;;5083478;28;20140;-58
2021/06/21 17:22:27;;;;;;;10.13;3.38;;;;;;;;;;5082675;28;20145;-59
2021/06/21 17:24:53;;;;;;;8.35;3.33;;;;;;;;;;5080824;28;20061;-59
2021/06/21 17:27:20;;;;;;;8.27;3.92;;;;;;;;;;5081023;28;20020;-58
2021/06/21 17:29:47;;;;;;;6.45;3.50;;;;;;;;;;5080866;28;20034;-58
2021/06/21 17:32:13;;;;;;;6.78;3.45;;;;;;;;;;5082922;28;20013;-58
2021/06/21 17:34:39;;;;;;;9.98;3.95;;;;;;;;;;5082554;28;20150;-58
2021/06/21 17:37:05;;;;;;;7.22;3.20;;;;;;;;;;5081523;28;20035;-59
2021/06/21 17:39:31;;;;;;;7.43;3.72;;;;;;;;;;5081063;28;20024;-58
2021/06/21 17:41:57;;;;;;;8.20;3.33;;;;;;;;;;5080016;28;20032;-58
2021/06/21 17:44:23;;;;;;;7.40;3.40;;;;;;;;;;5076337;28;20032;-58
2021/06/21 17:46:50;;;;;;;5.78;3.67;;;;;;;;;;5083316;28;20807;-58
2021/06/21 17:49:16;;;;;;;7.10;3.50;;;;;;;;;;5080668;28;20028;-61
2021/06/21 17:51:42;;;;;;;7.55;3.58;;;;;;;;;;5077709;28;20381;-59
2021/06/21 17:54:08;;;;;;;8.18;3.60;;;;;;;;;;5081681;28;20074;-60
2021/06/21 17:56:34;;;;;;;8.85;3.90;;;;;;;;;;5080260;28;20070;-61
2021/06/21 17:59:00;;;;;;;7.15;3.45;;;;;;;;;;5077103;28;20028;-58
2021/06/21 18:01:27;;;;;;;8.18;3.35;;;;;;;;;;5077319;28;20012;-59
2021/06/21 18:03:54;;;;;;;7.68;3.40;;;;;;;;;;5077905;28;20028;-59
2021/06/21 18:06:21;;;;;;;10.52;3.35;;;;;;;;;;5078541;28;20471;-58
2021/06/21 18:08:47;;;;;;;7.10;2.70;;;;;;;;;;5083810;28;20024;-58
2021/06/21 18:11:13;;;;;;;5.32;3.08;;;;;;;;;;5079961;28;20099;-58
2021/06/21 18:13:39;;;;;;;11.25;3.20;;;;;;;;;;5082003;28;20044;-58
2021/06/21 18:16:05;;;;;;;8.63;3.85;;;;;;;;;;5082714;28;20476;-58
2021/06/21 18:18:34;;;;;;;6.82;3.28;;;;;;;;;;5074596;28;20483;-58
2021/06/21 18:21:00;;;;;;;9.65;3.72;;;;;;;;;;5080365;28;20044;-59
2021/06/21 18:23:27;;;;;;;6.55;3.90;;;;;;;;;;5082593;28;20036;-58
2021/06/21 18:25:53;;;;;;;5.55;2.92;;;;;;;;;;5078845;28;20020;-58
2021/06/21 18:28:19;;;;;;;5.10;3.13;;;;;;;;;;5080183;28;20511;-58
2021/06/21 18:30:45;;;;;;;5.20;2.97;;;;;;;;;;5082908;28;20032;-59
2021/06/21 18:33:12;;;;;;;5.97;3.30;;;;;;;;;;5077063;28;20032;-59
2021/06/21 18:35:39;;;;;;;8.13;3.35;;;;;;;;;;5081867;28;20467;-58
2021/06/21 18:38:06;;;;;;;6.65;2.53;;;;;;;;;;5076960;28;20037;-58
2021/06/21 18:40:32;;;;;;;5.78;3.33;;;;;;;;;;5082205;28;20023;-58
2021/06/21 18:43:01;;;;;;;10.95;3.10;;;;;;;;;;5080677;28;20052;-59
2021/06/21 18:45:27;;;;;;;11.90;3.30;;;;;;;;;;5086056;28;20016;-58
2021/06/21 18:47:55;;;;;;;9.88;3.80;;;;;;;;;;5086628;28;20115;-60
2021/06/21 18:50:22;;;;;;;9.98;3.72;;;;;;;;;;5086687;28;20048;-58
2021/06/21 18:52:48;;;;;;;8.63;4.05;;;;;;;;;;5084191;28;20597;-58
2021/06/21 18:55:15;;;;;;;12.13;3.85;;;;;;;;;;5084094;28;20059;-60
2021/06/21 18:57:45;;;;;;;8.88;4.35;;;;;;;;;;5086334;28;20034;-59
2021/06/21 19:00:12;;;;;;;13.20;4.15;;;;;;;;;;5083627;28;20032;-60
2021/06/21 19:02:39;;;;;;;15.18;4.10;;;;;;;;;;5085725;28;20046;-59
2021/06/21 19:05:05;;;;;;;29.20;4.28;;;;;;;;;;5085296;28;20082;-57
2021/06/21 19:07:32;;;;;;;11.77;4.68;;;;;;;;;;5086195;28;20490;-60
2021/06/21 19:09:58;;;;;;;24.83;4.90;;;;;;;;;;5079359;28;20414;-60
2021/06/21 19:12:24;;;;;;;10.40;3.92;;;;;;;;;;5096130;28;20528;-61
2021/06/21 19:14:50;;;;;;;14.90;4.68;;;;;;;;;;5082248;28;20029;-58
2021/06/21 19:17:16;;;;;;;15.02;4.28;;;;;;;;;;5081191;28;20012;-60
2021/06/21 19:19:42;;;;;;;28.05;4.93;;;;;;;;;;5085291;28;20028;-60
2021/06/21 19:22:12;;;;;;;28.42;5.15;;;;;;;;;;5085746;28;20039;-60
2021/06/21 19:24:39;;;;;;;20.83;4.55;;;;;;;;;;5081244;28;20032;-59
2021/06/21 19:27:09;;;;;;;17.02;4.72;;;;;;;;;;5080152;28;20056;-60
2021/06/21 19:29:37;;;;;;;47.33;5.25;;;;;;;;;;5080674;28;20108;-59
2021/06/21 19:32:03;;;;;;;31.27;3.92;;;;;;;;;;5080009;28;20025;-60
2021/06/21 19:34:30;;;;;;;8.93;4.05;;;;;;;;;;5083419;28;20032;-59
2021/06/21 19:36:56;;;;;;;20.42;4.47;;;;;;;;;;5081871;28;20020;-60
2021/06/21 19:39:22;;;;;;;9.88;3.85;;;;;;;;;;5081178;28;20352;-61
2021/06/21 19:41:48;;;;;;;23.67;4.10;;;;;;;;;;5083730;28;20070;-60
2021/06/21 19:44:14;;;;;;;21.30;4.10;;;;;;;;;;5085837;28;20501;-61
2021/06/21 19:46:40;;;;;;;16.13;4.22;;;;;;;;;;5083354;28;20529;-58
2021/06/21 19:49:06;;;;;;;15.80;4.10;;;;;;;;;;5079142;28;20020;-60
2021/06/21 19:51:32;;;;;;;12.63;4.30;;;;;;;;;;5076658;28;20024;-60
2021/06/21 19:53:58;;;;;;;14.57;3.67;;;;;;;;;;5083416;28;20047;-58
2021/06/21 19:56:24;;;;;;;12.98;3.83;;;;;;;;;;5083185;28;20522;-58
2021/06/21 19:58:53;;;;;;;18.92;5.28;;;;;;;;;;5085316;28;20032;-60
2021/06/21 20:01:19;;;;;;;9.63;4.28;;;;;;;;;;5085819;28;20032;-62
2021/06/21 20:03:45;;;;;;;10.77;4.20;;;;;;;;;;5081315;28;20055;-58
2021/06/21 20:06:11;;;;;;;8.27;3.60;;;;;;;;;;5084521;28;20103;-58
2021/06/21 20:08:37;;;;;;;8.70;4.18;;;;;;;;;;5085048;28;20099;-59
2021/06/21 20:11:04;;;;;;;11.20;4.78;;;;;;;;;;5083523;28;20074;-59
2021/06/21 20:13:32;;;;;;;15.75;4.20;;;;;;;;;;5081336;28;20063;-59
2021/06/21 20:15:58;;;;;;;7.72;4.15;;;;;;;;;;5082692;28;20020;-58
2021/06/21 20:18:24;;;;;;;8.20;4.75;;;;;;;;;;5083847;28;20029;-58
2021/06/21 20:20:50;;;;;;;15.50;4.57;;;;;;;;;;5081716;28;20012;-58
2021/06/21 20:23:17;;;;;;;10.20;4.28;;;;;;;;;;5081383;28;20020;-59
2021/06/21 20:25:43;;;;;;;7.80;3.45;;;;;;;;;;5077123;28;20483;-58
2021/06/21 20:28:09;;;;;;;8.00;3.53;;;;;;;;;;5086623;28;20032;-58
2021/06/21 20:30:36;;;;;;;10.18;4.43;;;;;;;;;;5094188;28;20371;-59
2021/06/21 20:33:06;;;;;;;12.65;3.88;;;;;;;;;;5112725;28;20428;-58
2021/06/21 20:35:35;;;;;;;9.52;4.22;;;;;;;;;;5112882;28;20019;-61
2021/06/21 20:38:03;;;;;;;13.60;4.00;;;;;;;;;;5112707;28;20023;-58
2021/06/21 20:40:31;;;;;;;10.05;3.72;;;;;;;;;;5111315;28;20049;-59
2021/06/21 20:42:57;;;;;;;9.27;3.80;;;;;;;;;;5112687;28;20094;-60
2021/06/21 20:45:23;;;;;;;8.77;3.63;;;;;;;;;;5112624;28;20012;-61
2021/06/21 20:47:49;;;;;;;8.98;4.32;;;;;;;;;;5112548;28;20020;-58
2021/06/21 20:50:16;;;;;;;9.95;3.95;;;;;;;;;;5112538;28;20027;-58
2021/06/21 20:52:42;;;;;;;11.48;3.67;;;;;;;;;;5112135;28;20028;-60
2021/06/21 20:55:09;;;;;;;6.65;3.70;;;;;;;;;;5094109;28;20040;-59
2021/06/21 20:57:39;;;;;;;9.85;3.88;;;;;;;;;;5091813;28;20024;-59
2021/06/21 21:00:13;;;;;;;6.95;3.40;;;;;;;;;;5090614;28;20467;-60
2021/06/21 21:02:40;;;;;;;10.82;3.95;;;;;;;;;;5091248;28;20028;-58
2021/06/21 21:05:06;;;;;;;10.93;4.30;;;;;;;;;;5091986;28;20108;-59
2021/06/21 21:07:32;;;;;;;10.63;3.50;;;;;;;;;;5092032;28;20026;-59
2021/06/21 21:09:58;;;;;;;12.38;3.80;;;;;;;;;;5091965;28;20075;-58
2021/06/21 21:12:24;;;;;;;9.50;3.70;;;;;;;;;;5092044;28;20046;-58
2021/06/21 21:14:50;;;;;;;13.43;4.25;;;;;;;;;;5090601;28;20039;-58
2021/06/21 21:17:17;;;;;;;11.02;4.00;;;;;;;;;;5091787;28;20020;-60
2021/06/21 21:19:43;;;;;;;7.50;3.90;;;;;;;;;;5091891;28;20028;-59
2021/06/21 21:22:09;;;;;;;11.18;3.95;;;;;;;;;;5091487;28;20424;-59
2021/06/21 21:24:35;;;;;;;9.13;4.30;;;;;;;;;;5091564;28;20052;-58
2021/06/21 21:27:01;;;;;;;10.13;3.70;;;;;;;;;;5091631;28;20069;-59
2021/06/21 21:29:27;;;;;;;14.10;4.60;;;;;;;;;;5090124;28;20049;-58
2021/06/21 21:31:55;;;;;;;10.75;3.83;;;;;;;;;;5091366;28;20020;-59
2021/06/21 21:34:22;;;;;;;8.43;3.70;;;;;;;;;;5091539;28;20029;-62
2021/06/21 21:36:48;;;;;;;9.18;4.20;;;;;;;;;;5091548;28;20027;-58
2021/06/21 21:39:14;;;;;;;9.80;4.05;;;;;;;;;;5091147;28;20027;-63
2021/06/21 21:41:40;;;;;;;9.80;3.97;;;;;;;;;;5089937;28;20016;-61
2021/06/21 21:44:06;;;;;;;12.25;4.25;;;;;;;;;;5091838;28;20070;-58
2021/06/21 21:46:32;;;;;;;85.05;7.43;;;;;;;;;;5091530;28;20475;-58
2021/06/21 21:49:00;;;;;;;60.97;6.20;;;;;;;;;;5091553;28;20039;-58
2021/06/21 21:51:26;;;;;;;17.48;4.20;;;;;;;;;;5091674;28;20020;-58
2021/06/21 21:53:52;;;;;;;17.00;5.10;;;;;;;;;;5091178;28;20127;-58
2021/06/21 21:56:18;;;;;;;17.83;4.47;;;;;;;;;;5090994;28;20452;-58
2021/06/21 21:58:44;;;;;;;12.70;4.80;;;;;;;;;;5091648;28;20407;-58
2021/06/21 22:01:10;;;;;;;10.40;4.45;;;;;;;;;;5091140;28;20099;-58
2021/06/21 22:03:36;;;;;;;9.25;4.10;;;;;;;;;;5091015;28;20016;-59
2021/06/21 22:06:03;;;;;;;11.82;4.72;;;;;;;;;;5091249;28;20028;-59
2021/06/21 22:08:29;;;;;;;10.23;4.32;;;;;;;;;;5090172;28;20024;-58
2021/06/21 22:10:55;;;;;;;8.20;4.15;;;;;;;;;;5091240;28;20020;-59
2021/06/21 22:13:21;;;;;;;8.75;4.15;;;;;;;;;;5090958;28;20406;-58
2021/06/21 22:15:47;;;;;;;12.18;4.15;;;;;;;;;;5091597;28;20471;-59
2021/06/21 22:18:14;;;;;;;10.95;4.35;;;;;;;;;;5094993;28;20032;-60
2021/06/21 22:20:40;;;;;;;9.52;4.18;;;;;;;;;;5094749;28;20016;-58
2021/06/21 22:23:08;;;;;;;8.40;4.65;;;;;;;;;;5094696;28;20013;-59
2021/06/21 22:25:34;;;;;;;10.10;4.30;;;;;;;;;;5093522;28;20073;-59
2021/06/21 22:28:01;;;;;;;10.90;4.40;;;;;;;;;;5093263;28;20022;-59
2021/06/21 22:30:27;;;;;;;14.05;4.90;;;;;;;;;;5094672;28;20475;-58
2021/06/21 22:32:53;;;;;;;8.20;4.10;;;;;;;;;;5094631;28;20077;-58
2021/06/21 22:35:19;;;;;;;15.52;4.93;;;;;;;;;;5094372;28;20027;-58
2021/06/21 22:37:45;;;;;;;10.48;4.03;;;;;;;;;;5094290;28;20020;-58
2021/06/21 22:40:11;;;;;;;13.55;4.55;;;;;;;;;;5094376;28;20035;-58
2021/06/21 22:42:38;;;;;;;9.98;4.05;;;;;;;;;;5094501;28;20024;-58
2021/06/21 22:45:04;;;;;;;13.07;5.00;;;;;;;;;;5094849;28;20012;-59
2021/06/21 22:47:31;;;;;;;12.20;4.80;;;;;;;;;;5094492;28;20036;-59
2021/06/21 22:49:57;;;;;;;14.60;4.50;;;;;;;;;;5094774;28;20039;-58
2021/06/21 22:52:23;;;;;;;7.18;3.88;;;;;;;;;;5093804;28;20032;-59
2021/06/21 22:54:49;;;;;;;12.07;4.85;;;;;;;;;;5094354;28;20086;-58
2021/06/21 22:57:15;;;;;;;13.50;4.78;;;;;;;;;;5094772;28;20027;-59
2021/06/21 22:59:41;;;;;;;12.10;5.32;;;;;;;;;;5094691;28;20099;-59
2021/06/21 23:02:07;;;;;;;10.77;5.00;;;;;;;;;;5093220;28;20031;-60
2021/06/21 23:04:33;;;;;;;14.27;5.38;;;;;;;;;;5094533;28;20019;-59
2021/06/21 23:07:00;;;;;;;10.65;5.47;;;;;;;;;;5094611;28;20032;-59
2021/06/21 23:09:26;;;;;;;12.32;5.68;;;;;;;;;;5094527;28;20020;-59
2021/06/21 23:11:52;;;;;;;11.75;5.50;;;;;;;;;;5094470;28;20035;-59
2021/06/21 23:14:19;;;;;;;13.23;5.32;;;;;;;;;;5094375;28;20051;-59
2021/06/21 23:16:45;;;;;;;11.63;5.18;;;;;;;;;;5094355;28;20027;-61
2021/06/21 23:19:11;;;;;;;16.27;5.35;;;;;;;;;;5094357;28;20026;-58
2021/06/21 23:21:37;;;;;;;12.02;5.18;;;;;;;;;;5094238;28;20024;-58
2021/06/21 23:24:03;;;;;;;13.93;5.68;;;;;;;;;;5094100;28;20035;-59
2021/06/21 23:26:29;;;;;;;15.88;5.50;;;;;;;;;;5093565;28;20020;-58
2021/06/21 23:28:55;;;;;;;16.42;6.20;;;;;;;;;;5093897;28;20607;-58
2021/06/21 23:31:21;;;;;;;13.60;5.97;;;;;;;;;;5094041;28;20680;-58
2021/06/21 23:33:47;;;;;;;11.27;5.60;;;;;;;;;;5082565;28;20156;-59
2021/06/21 23:36:13;;;;;;;10.18;5.30;;;;;;;;;;5073660;28;20503;-61
2021/06/21 23:38:39;;;;;;;8.82;4.72;;;;;;;;;;5088308;28;20066;-60
2021/06/21 23:41:06;;;;;;;9.73;4.88;;;;;;;;;;5093596;28;20021;-58
2021/06/21 23:43:32;;;;;;;13.02;5.55;;;;;;;;;;5093778;28;20020;-59
2021/06/21 23:45:58;;;;;;;12.13;6.30;;;;;;;;;;5093521;28;20024;-58
2021/06/21 23:48:24;;;;;;;15.48;5.85;;;;;;;;;;5093700;28;20012;-58
2021/06/21 23:50:51;;;;;;;11.27;5.55;;;;;;;;;;5093987;28;20023;-59
2021/06/21 23:53:17;;;;;;;14.48;6.15;;;;;;;;;;5093792;28;20386;-58
2021/06/21 23:55:43;;;;;;;16.00;6.07;;;;;;;;;;5093370;28;20048;-58
2021/06/21 23:58:09;;;;;;;11.48;6.03;;;;;;;;;;5093707;28;20133;-60
